Time;durP1;ratioP1;P1;durP2;ratioP2;P2;SDS_P1;SDS_P2;PMS_P1;PMS_P2;Temp;Humidity;BMP_temperature;BMP_pressure;BME280_temperature;BME280_humidity;BME280_pressure;Samples;Min_cycle;Max_cycle;Signal;HPM_P1;HPM_P2
2023/10/05 00:01:44;;;;;;;2.33;1.30;;;;;;;11.17;65.28;97627.97;5033396;28;20103;-78
2023/10/05 00:04:16;;;;;;;4.63;1.90;;;;;;;11.15;65.24;97630.75;5033276;28;20140;-78
2023/10/05 00:06:45;;;;;;;4.93;1.95;;;;;;;11.10;65.23;97619.97;5033486;28;20057;-77
2023/10/05 00:09:16;;;;;;;3.58;1.98;;;;;;;11.10;65.50;97617.34;5033378;28;20053;-78
2023/10/05 00:11:45;;;;;;;5.33;1.70;;;;;;;11.12;65.60;97615.41;5033109;28;20053;-77
2023/10/05 00:14:13;;;;;;;1.48;1.35;;;;;;;11.12;65.52;97604.94;5032967;28;20253;-78
2023/10/05 00:16:44;;;;;;;4.57;1.77;;;;;;;11.11;65.68;97600.72;5032931;28;20049;-77
2023/10/05 00:19:15;;;;;;;4.13;1.85;;;;;;;11.12;65.64;97612.78;5033461;28;20413;-77
2023/10/05 00:21:50;;;;;;;3.83;1.63;;;;;;;11.12;65.81;97608.38;5032885;28;20563;-78
2023/10/05 00:24:27;;;;;;;3.08;1.67;;;;;;;11.11;65.61;97609.38;5032929;28;20091;-77
2023/10/05 00:26:56;;;;;;;2.47;1.75;;;;;;;11.13;65.53;97602.19;5032884;28;20053;-78
2023/10/05 00:29:27;;;;;;;4.30;1.65;;;;;;;11.16;65.41;97616.72;5032178;28;20057;-77
2023/10/05 00:31:58;;;;;;;4.25;1.50;;;;;;;11.21;65.39;97609.19;5032695;28;20485;-78
2023/10/05 00:34:28;;;;;;;5.45;1.92;;;;;;;11.27;64.94;97608.56;5032821;28;20057;-78
2023/10/05 00:36:58;;;;;;;4.70;2.25;;;;;;;11.27;64.94;97607.75;5033786;28;20077;-77
2023/10/05 00:39:30;;;;;;;2.45;1.30;;;;;;;11.27;65.09;97607.75;5032801;28;20061;-77
2023/10/05 00:42:06;;;;;;;3.97;2.00;;;;;;;11.25;65.00;97605.28;5032809;28;20060;-77
2023/10/05 00:44:35;;;;;;;5.78;1.70;;;;;;;11.21;65.01;97606.59;5032516;28;20084;-78
2023/10/05 00:47:06;;;;;;;3.58;1.20;;;;;;;11.16;65.23;97606.25;5032634;28;20053;-77
2023/10/05 00:49:45;;;;;;;3.00;1.60;;;;;;;11.17;65.23;97612.31;5032662;28;20060;-77
2023/10/05 00:52:15;;;;;;;4.53;1.33;;;;;;;11.26;65.20;97606.94;5032504;28;20050;-78
2023/10/05 00:54:50;;;;;;;2.90;1.00;;;;;;;11.35;65.02;97615.63;5032319;28;20061;-77
2023/10/05 00:57:22;;;;;;;1.88;1.42;;;;;;;11.35;64.64;97599.94;5032876;28;20056;-78
2023/10/05 01:00:10;;;;;;;3.15;1.42;;;;;;;11.31;64.92;97598.63;5032462;28;20078;-78
2023/10/05 01:05:15;;;;;;;1.95;1.55;;;;;;;11.14;64.67;97593.34;5050918;28;20048;-78
2023/10/05 01:07:49;;;;;;;3.20;1.35;;;;;;;11.08;65.04;97588.78;5052648;28;20057;-78
2023/10/05 01:10:22;;;;;;;4.63;1.60;;;;;;;11.12;64.97;97595.31;5052683;28;20048;-77
2023/10/05 01:12:50;;;;;;;;;;;;;;;11.16;64.43;97588.00;5052999;28;20504;-81
2023/10/05 01:15:19;;;;;;;3.05;1.80;;;;;;;11.09;64.56;97581.78;5052897;28;19921;-78
2023/10/05 01:17:50;;;;;;;2.88;1.83;;;;;;;11.01;65.04;97582.56;5052787;28;20057;-78
2023/10/05 01:20:26;;;;;;;2.92;1.63;;;;;;;11.00;65.25;97580.94;5052686;28;20522;-78
2023/10/05 01:22:57;;;;;;;3.70;1.42;;;;;;;11.04;65.11;97581.44;5052525;28;20091;-78
2023/10/05 01:25:27;;;;;;;3.65;1.52;;;;;;;11.07;65.25;97581.13;5052536;28;20052;-78
2023/10/05 01:27:55;;;;;;;10.15;1.85;;;;;;;11.09;65.06;97581.78;5052426;28;20152;-81
2023/10/05 01:30:24;;;;;;;2.42;1.50;;;;;;;11.06;65.15;97585.53;5052552;28;20053;-78
2023/10/05 01:32:53;;;;;;;6.38;2.15;;;;;;;11.02;65.24;97593.81;5052057;28;20123;-78
2023/10/05 01:35:23;;;;;;;2.38;1.60;;;;;;;10.99;65.27;97589.75;5052961;28;20049;-78
2023/10/05 01:37:53;;;;;;;2.20;1.67;;;;;;;10.95;65.19;97585.81;5052437;28;20056;-78
2023/10/05 01:40:24;;;;;;;1.88;1.42;;;;;;;10.92;65.57;97583.53;5052588;28;20053;-78
2023/10/05 01:42:55;;;;;;;3.83;2.08;;;;;;;10.86;65.45;97581.56;5056392;28;20060;-78
2023/10/05 01:45:28;;;;;;;4.22;1.73;;;;;;;10.79;65.60;97572.72;5056008;28;20077;-78
2023/10/05 01:48:01;;;;;;;1.90;1.40;;;;;;;10.82;65.79;97577.63;5055850;28;20045;-78
2023/10/05 01:50:31;;;;;;;6.25;2.33;;;;;;;10.85;65.65;97566.88;5056243;28;20059;-79
2023/10/05 01:53:07;;;;;;;2.72;1.95;;;;;;;10.91;65.57;97561.00;5055810;28;20049;-79
2023/10/05 01:55:35;;;;;;;2.67;1.45;;;;;;;10.95;65.25;97562.31;5056250;28;20136;-78
2023/10/05 01:58:07;;;;;;;7.57;1.70;;;;;;;10.96;65.29;97553.53;5055910;28;20512;-78
2023/10/05 02:00:38;;;;;;;2.60;1.70;;;;;;;10.95;65.28;97556.28;5055865;28;20053;-81
2023/10/05 02:03:08;;;;;;;2.85;1.60;;;;;;;10.93;65.28;97554.66;5055741;28;20492;-78
2023/10/05 02:05:37;;;;;;;2.50;1.65;;;;;;;10.94;65.46;97550.25;5055714;28;20052;-77
2023/10/05 02:08:06;;;;;;;4.32;1.90;;;;;;;10.97;65.43;97555.16;5055865;28;20045;-78
2023/10/05 02:10:39;;;;;;;4.30;1.98;;;;;;;10.96;65.03;97555.31;5055728;28;20516;-78
2023/10/05 02:13:12;;;;;;;2.83;1.80;;;;;;;10.95;65.40;97561.50;5055896;28;20041;-77
2023/10/05 02:15:41;;;;;;;3.60;1.90;;;;;;;10.92;65.15;97553.03;5055639;28;20531;-78
2023/10/05 02:18:18;;;;;;;2.20;1.60;;;;;;;10.88;65.12;97556.13;5055722;28;20059;-78
2023/10/05 02:20:50;;;;;;;2.42;1.17;;;;;;;10.90;65.22;97544.53;5055467;28;20492;-78
2023/10/05 02:23:24;;;;;;;4.43;1.52;;;;;;;10.98;65.12;97546.34;5057270;28;20091;-78
2023/10/05 02:26:23;;;;;;;1.92;1.60;;;;;;;11.02;65.25;97552.88;5071408;28;20112;-79
2023/10/05 02:28:55;;;;;;;3.28;1.30;;;;;;;11.03;65.03;97554.50;5070941;28;20053;-81
2023/10/05 02:31:23;;;;;;;2.15;1.45;;;;;;;11.09;65.09;97564.31;5063734;28;20056;-79
2023/10/05 02:33:52;;;;;;;3.25;1.30;;;;;;;11.17;64.73;97565.28;5062237;28;20466;-79
2023/10/05 02:36:26;;;;;;;3.42;1.45;;;;;;;11.20;64.61;97570.22;5062214;28;20056;-79
2023/10/05 02:38:55;;;;;;;2.08;1.25;;;;;;;11.22;64.55;97566.44;5058119;28;20067;-78
2023/10/05 02:41:37;;;;;;;5.53;1.80;;;;;;;11.25;64.46;97560.91;5055866;28;20056;-80
2023/10/05 02:44:17;;;;;;;2.72;1.13;;;;;;;11.23;64.51;97546.38;5055377;28;20059;-79
2023/10/05 02:46:47;;;;;;;3.88;1.50;;;;;;;11.21;64.55;97550.94;5055066;28;20049;-78
2023/10/05 02:49:16;;;;;;;6.15;1.65;;;;;;;11.19;64.27;97538.03;5055198;28;20045;-78
2023/10/05 02:51:45;;;;;;;2.40;1.40;;;;;;;11.17;64.17;97533.97;5055301;28;20110;-78
2023/10/05 02:54:14;;;;;;;2.22;1.35;;;;;;;11.22;64.47;97545.56;5073604;28;20075;-79
2023/10/05 02:56:43;;;;;;;4.30;1.52;;;;;;;11.29;64.37;97540.50;5072834;28;20052;-79
2023/10/05 02:59:14;;;;;;;4.32;1.30;;;;;;;11.37;63.82;97534.44;5066921;28;20053;-78
2023/10/05 03:09:38;;;;;;;4.07;1.60;;;;;;;11.26;63.77;97549.47;5055457;28;20053;-78
2023/10/05 03:12:07;;;;;;;2.22;1.17;;;;;;;11.23;63.65;97552.41;5054646;28;20051;-81
2023/10/05 03:14:36;;;;;;;2.42;1.58;;;;;;;11.24;63.89;97551.44;5054860;28;20041;-80
2023/10/05 03:17:07;;;;;;;2.47;1.50;;;;;;;11.25;64.21;97552.25;5054442;28;20508;-78
2023/10/05 03:19:36;;;;;;;4.95;1.48;;;;;;;11.31;64.11;97557.63;5054727;28;20518;-78
2023/10/05 03:22:05;;;;;;;3.40;1.52;;;;;;;11.38;63.75;97552.59;5054678;28;20504;-78
2023/10/05 03:24:35;;;;;;;2.50;1.30;;;;;;;11.47;63.42;97546.38;5054433;28;20055;-78
2023/10/05 03:27:03;;;;;;;4.10;1.50;;;;;;;11.49;62.95;97533.97;5055180;28;20049;-78
2023/10/05 03:29:35;;;;;;;3.08;1.73;;;;;;;11.43;62.81;97544.25;5056285;28;20057;-78
2023/10/05 03:32:13;;;;;;;6.22;1.98;;;;;;;11.28;63.24;97541.47;5066945;28;20045;-78
2023/10/05 03:34:46;;;;;;;2.60;1.83;;;;;;;11.14;63.74;97550.78;5054680;28;20492;-79
2023/10/05 03:37:15;;;;;;;;;;;;;;;11.12;64.07;97548.31;5054892;28;20561;-79
2023/10/05 03:39:51;;;;;;;3.38;1.85;;;;;;;11.11;63.87;97545.88;5053843;28;19951;-78
2023/10/05 03:42:21;;;;;;;5.90;1.70;;;;;;;11.07;64.15;97541.97;5053937;28;20055;-78
2023/10/05 03:45:00;;;;;;;3.63;1.65;;;;;;;11.00;64.25;97544.41;5053848;28;20052;-78
2023/10/05 03:47:30;;;;;;;3.05;1.67;;;;;;;10.96;64.51;97540.47;5053861;28;20661;-78
2023/10/05 03:49:59;;;;;;;3.67;1.23;;;;;;;10.93;64.17;97540.78;5054063;28;20143;-78
2023/10/05 03:52:32;;;;;;;5.97;1.90;;;;;;;10.87;64.46;97544.84;5053881;28;20415;-78
2023/10/05 03:55:04;;;;;;;5.05;1.55;;;;;;;10.82;64.88;97552.38;5053630;28;20045;-78
2023/10/05 03:57:34;;;;;;;1.60;1.23;;;;;;;10.81;65.06;97563.75;5053592;28;20045;-81
2023/10/05 04:00:18;;;;;;;2.83;1.52;;;;;;;10.83;65.23;97564.44;5054067;28;20048;-78
2023/10/05 04:02:48;;;;;;;5.05;1.58;;;;;;;10.92;65.18;97567.88;5053071;28;20519;-78
2023/10/05 04:05:20;;;;;;;3.70;2.20;;;;;;;10.90;64.80;97562.00;5052430;28;20103;-78
2023/10/05 04:07:49;;;;;;;2.15;1.63;;;;;;;10.92;65.22;97558.25;5053528;28;20481;-81
2023/10/05 04:10:23;;;;;;;4.47;1.90;;;;;;;11.04;64.67;97561.38;5053295;28;20106;-79
2023/10/05 04:12:54;;;;;;;3.33;1.67;;;;;;;11.11;64.64;97554.53;5053400;28;20052;-78
2023/10/05 04:15:23;;;;;;;4.40;2.03;;;;;;;11.18;64.49;97564.34;5053162;28;20118;-79
2023/10/05 04:17:53;;;;;;;2.25;1.70;;;;;;;11.25;64.35;97562.69;5053193;28;20057;-78
2023/10/05 04:20:28;;;;;;;4.00;2.97;;;;;;;11.31;63.86;97569.88;5053080;28;20503;-78
2023/10/05 04:22:56;;;;;;;3.10;2.20;;;;;;;11.38;63.90;97557.81;5053361;28;20554;-78
2023/10/05 04:25:25;;;;;;;4.63;2.75;;;;;;;11.36;63.51;97551.13;5053120;28;20052;-78
2023/10/05 04:27:53;;;;;;;4.65;2.58;;;;;;;11.30;63.63;97563.84;5053548;28;20106;-78
2023/10/05 04:30:22;;;;;;;4.70;2.35;;;;;;;11.19;63.93;97563.34;5053283;28;20095;-78
2023/10/05 04:32:50;;;;;;;5.03;2.72;;;;;;;11.08;64.34;97559.25;5052887;28;20045;-78
2023/10/05 04:35:23;;;;;;;5.53;3.40;;;;;;;11.01;64.85;97551.25;5053155;28;20056;-81
2023/10/05 04:37:51;;;;;;;5.05;2.83;;;;;;;10.96;64.74;97553.53;5052946;28;20080;-78
2023/10/05 04:40:24;;;;;;;4.55;3.03;;;;;;;10.95;65.03;97551.88;5052994;28;20045;-80
2023/10/05 04:42:52;;;;;;;5.72;3.05;;;;;;;10.94;65.30;97555.47;5052558;28;20049;-81
2023/10/05 04:45:21;;;;;;;5.22;3.05;;;;;;;10.94;65.18;97563.31;5052657;28;20055;-78
2023/10/05 04:47:49;;;;;;;9.10;4.13;;;;;;;10.93;65.19;97559.03;5052693;28;20486;-81
2023/10/05 04:50:19;;;;;;;5.07;3.97;;;;;;;10.85;65.28;97559.06;5052869;28;20131;-81
2023/10/05 04:52:50;;;;;;;5.60;3.58;;;;;;;10.80;65.57;97563.91;5052861;28;20049;-81
2023/10/05 04:55:23;;;;;;;5.80;3.80;;;;;;;10.78;65.60;97563.25;5052323;28;20493;-81
2023/10/05 04:57:55;;;;;;;5.18;3.40;;;;;;;10.78;65.82;97560.66;5052646;28;20052;-81
2023/10/05 05:03:33;;;;;;;6.72;4.90;;;;;;;10.72;65.36;97562.94;5052457;28;20128;-81
2023/10/05 05:06:10;;;;;;;8.93;6.17;;;;;;;10.68;66.16;97566.81;5052625;28;20103;-81
2023/10/05 05:08:39;;;;;;;8.48;5.60;;;;;;;10.63;66.03;97558.66;5052663;28;20068;-81
2023/10/05 05:11:11;;;;;;;8.48;5.80;;;;;;;10.62;66.23;97556.22;5052386;28;20482;-81
2023/10/05 05:13:40;;;;;;;12.75;6.00;;;;;;;10.61;66.17;97558.00;5052778;28;20049;-81
2023/10/05 05:16:09;;;;;;;9.38;5.78;;;;;;;10.66;66.54;97558.34;5053901;28;20045;-81
2023/10/05 05:18:38;;;;;;;10.88;6.43;;;;;;;10.76;66.37;97554.75;5056842;28;20045;-78
2023/10/05 05:21:08;;;;;;;7.50;4.90;;;;;;;10.82;66.13;97548.91;5056750;28;20053;-78
2023/10/05 05:23:36;;;;;;;7.30;4.30;;;;;;;10.80;66.04;97558.69;5056889;28;20107;-78
2023/10/05 05:26:06;;;;;;;7.03;3.90;;;;;;;10.77;66.22;97561.63;5056731;28;20052;-78
2023/10/05 05:28:34;;;;;;;6.18;4.38;;;;;;;10.75;66.40;97556.56;5056754;28;20096;-79
2023/10/05 05:31:11;;;;;;;6.65;3.95;;;;;;;10.78;66.65;97565.88;5056446;28;20552;-78
2023/10/05 05:33:40;;;;;;;8.27;4.97;;;;;;;10.77;66.45;97564.25;5056370;28;20049;-78
2023/10/05 05:36:11;;;;;;;12.35;5.72;;;;;;;10.73;66.69;97568.94;5057256;28;20067;-81
2023/10/05 05:38:40;;;;;;;10.85;5.65;;;;;;;10.72;66.49;97568.16;5056272;28;20132;-81
2023/10/05 05:41:12;;;;;;;7.53;5.13;;;;;;;10.77;66.86;97577.28;5068197;28;20049;-78
2023/10/05 05:43:41;;;;;;;7.10;4.60;;;;;;;10.87;66.54;97576.19;5058583;28;20053;-81
2023/10/05 05:46:12;;;;;;;7.55;4.80;;;;;;;10.89;66.52;97565.59;5056620;28;20053;-78
2023/10/05 05:48:42;;;;;;;6.50;4.20;;;;;;;10.87;66.52;97573.56;5056126;28;20071;-78
2023/10/05 05:51:15;;;;;;;6.72;4.78;;;;;;;10.84;66.62;97571.25;5055728;28;20055;-78
2023/10/05 05:53:44;;;;;;;10.88;5.75;;;;;;;10.85;66.58;97565.09;5056268;28;20055;-78
2023/10/05 05:56:16;;;;;;;8.25;5.03;;;;;;;10.88;66.78;97569.97;5056137;28;20487;-78
2023/10/05 05:58:46;;;;;;;9.55;4.80;;;;;;;10.93;66.71;97570.34;5056194;28;20065;-80
2023/10/05 06:01:17;;;;;;;8.75;5.75;;;;;;;10.94;66.55;97571.13;5055890;28;20072;-81
2023/10/05 06:03:48;;;;;;;12.18;5.35;;;;;;;10.97;66.75;97583.88;5070462;28;20048;-81
2023/10/05 06:06:20;;;;;;;9.18;5.38;;;;;;;11.00;66.66;97575.72;5077229;28;20052;-78
2023/10/05 06:08:49;;;;;;;8.70;4.75;;;;;;;11.06;66.36;97574.25;5064082;28;20126;-78
2023/10/05 06:11:17;;;;;;;4.95;4.25;;;;;;;11.14;66.23;97582.91;5058388;28;20053;-81
2023/10/05 06:13:46;;;;;;;5.65;4.40;;;;;;;11.22;66.17;97581.31;5056966;28;20080;-78
2023/10/05 06:16:15;;;;;;;7.03;4.05;;;;;;;11.31;65.83;97582.94;5055895;28;20115;-78
2023/10/05 06:18:43;;;;;;;6.68;4.03;;;;;;;11.38;65.69;97570.88;5055929;28;20128;-79
2023/10/05 06:21:12;;;;;;;6.15;3.40;;;;;;;11.46;65.37;97568.25;5063859;28;20057;-78
2023/10/05 06:23:42;;;;;;;7.72;3.63;;;;;;;11.55;65.23;97577.72;5069741;28;20049;-78
2023/10/05 06:26:11;;;;;;;7.30;4.05;;;;;;;11.67;64.69;97572.16;5067910;28;20048;-79
2023/10/05 06:28:39;;;;;;;6.15;4.05;;;;;;;11.78;64.44;97568.41;5062890;28;20064;-78
2023/10/05 06:31:11;;;;;;;10.18;4.18;;;;;;;11.89;64.30;97568.88;5069722;28;20124;-78
2023/10/05 06:33:42;;;;;;;6.50;4.05;;;;;;;12.01;64.00;97566.75;5063994;28;20075;-78
2023/10/05 06:36:10;;;;;;;6.93;3.97;;;;;;;12.11;63.62;97569.19;5056084;28;20103;-78
2023/10/05 06:38:38;;;;;;;7.18;4.07;;;;;;;12.19;63.49;97566.53;5055161;28;20539;-78
2023/10/05 06:41:07;;;;;;;9.00;4.50;;;;;;;12.27;63.34;97574.38;5055213;28;20107;-78
2023/10/05 06:43:36;;;;;;;7.50;3.80;;;;;;;12.35;63.27;97568.28;5055083;28;20428;-78
2023/10/05 06:46:09;;;;;;;7.80;4.57;;;;;;;12.41;63.28;97569.44;5054849;28;20124;-78
2023/10/05 06:48:40;;;;;;;12.25;5.28;;;;;;;12.42;62.93;97569.25;5055165;28;20045;-79
2023/10/05 06:51:08;;;;;;;9.43;5.57;;;;;;;12.42;63.27;97565.81;5054767;28;20073;-79
2023/10/05 06:53:37;;;;;;;9.52;5.30;;;;;;;12.46;63.14;97561.88;5055851;28;20073;-78
2023/10/05 06:56:07;;;;;;;10.38;5.15;;;;;;;12.44;63.25;97569.06;5055423;28;20136;-78
2023/10/05 06:58:36;;;;;;;6.78;4.65;;;;;;;12.43;63.28;97568.25;5056171;28;20114;-79
2023/10/05 07:01:04;;;;;;;8.63;5.25;;;;;;;12.47;63.41;97579.22;5059432;28;20088;-78
2023/10/05 07:03:33;;;;;;;7.93;5.47;;;;;;;12.51;63.24;97583.94;5058700;28;20075;-78
2023/10/05 07:06:04;;;;;;;9.60;5.72;;;;;;;12.50;63.14;97595.38;5058936;28;20055;-78
2023/10/05 07:08:33;;;;;;;10.25;5.75;;;;;;;12.47;63.23;97608.00;5060226;28;20079;-78
2023/10/05 07:11:06;;;;;;;8.98;5.55;;;;;;;12.44;63.66;97601.31;5060618;28;20064;-78
2023/10/05 07:13:36;;;;;;;8.07;4.70;;;;;;;12.46;63.85;97609.81;5058260;28;20051;-78
2023/10/05 07:16:05;;;;;;;6.63;4.78;;;;;;;12.52;63.90;97614.34;5057427;28;20044;-78
2023/10/05 07:18:34;;;;;;;6.70;4.90;;;;;;;12.62;63.49;97619.41;5057131;28;20053;-79
2023/10/05 07:21:04;;;;;;;13.50;5.50;;;;;;;12.69;63.43;97619.53;5056487;28;20071;-78
2023/10/05 07:23:33;;;;;;;6.70;5.40;;;;;;;12.73;63.29;97616.41;5056986;28;20069;-79
2023/10/05 07:26:01;;;;;;;7.95;5.53;;;;;;;12.78;63.39;97618.50;5056216;28;20060;-78
2023/10/05 07:28:31;;;;;;;12.30;5.35;;;;;;;12.78;63.44;97621.94;5055108;28;20520;-79
2023/10/05 07:31:02;;;;;;;9.68;5.60;;;;;;;12.85;63.59;97629.13;5055210;28;20711;-78
2023/10/05 07:33:33;;;;;;;10.82;5.65;;;;;;;12.92;63.55;97635.28;5057187;28;20056;-79
2023/10/05 07:36:03;;;;;;;9.07;5.07;;;;;;;13.03;63.95;97641.97;5056866;28;20511;-78
2023/10/05 07:38:32;;;;;;;11.75;5.93;;;;;;;13.23;63.82;97637.09;5053862;28;20045;-78
2023/10/05 07:41:02;;;;;;;11.73;6.00;;;;;;;13.39;62.66;97630.00;5053992;28;20488;-79
2023/10/05 07:43:32;;;;;;;14.63;6.18;;;;;;;13.58;62.36;97625.28;5053883;28;20049;-79
2023/10/05 07:46:02;;;;;;;9.57;5.72;;;;;;;13.74;61.88;97625.16;5053888;28;20519;-78
2023/10/05 07:48:31;;;;;;;9.52;5.30;;;;;;;13.88;62.19;97631.41;5055433;28;20056;-78
2023/10/05 07:51:00;;;;;;;14.27;5.28;;;;;;;14.00;60.69;97635.25;5063580;28;20049;-79
2023/10/05 07:53:28;;;;;;;13.07;4.18;;;;;;;14.30;60.55;97634.47;5060251;28;20049;-79
2023/10/05 07:55:57;;;;;;;5.68;3.33;;;;;;;15.02;59.85;97628.56;5055032;28;20041;-79
2023/10/05 07:58:25;;;;;;;5.82;2.83;;;;;;;15.58;58.24;97630.59;5054406;28;20107;-79
2023/10/05 08:00:54;;;;;;;6.38;3.33;;;;;;;15.73;57.65;97636.63;5055847;28;20051;-79
2023/10/05 08:03:24;;;;;;;6.43;3.55;;;;;;;15.64;56.20;97642.97;5053901;28;20075;-79
2023/10/05 08:05:52;;;;;;;7.05;3.28;;;;;;;15.53;56.91;97648.75;5054054;28;20053;-79
2023/10/05 08:08:20;;;;;;;6.45;3.13;;;;;;;15.58;57.53;97660.31;5053533;28;20067;-78
2023/10/05 08:10:48;;;;;;;6.53;3.80;;;;;;;15.69;57.15;97655.56;5053688;28;20056;-78
2023/10/05 08:13:16;;;;;;;5.18;3.10;;;;;;;15.79;56.91;97656.91;5054667;28;20136;-79
2023/10/05 08:15:44;;;;;;;5.30;2.53;;;;;;;15.97;56.59;97653.81;5053659;28;20045;-78
2023/10/05 08:18:12;;;;;;;7.18;2.42;;;;;;;16.17;56.44;97663.69;5053711;28;20056;-79
2023/10/05 08:20:41;;;;;;;5.30;2.85;;;;;;;16.37;56.35;97656.75;5053631;28;20049;-79
2023/10/05 08:23:09;;;;;;;6.00;2.53;;;;;;;16.63;55.83;97653.47;5053547;28;20102;-79
2023/10/05 08:25:37;;;;;;;6.32;2.53;;;;;;;16.97;55.11;97662.38;5053600;28;20045;-79
2023/10/05 08:28:08;;;;;;;3.50;2.13;;;;;;;17.32;54.42;97662.31;5053507;28;20132;-79
2023/10/05 08:30:45;;;;;;;7.85;2.95;;;;;;;17.63;52.86;97659.13;5053315;28;20072;-79
2023/10/05 08:33:15;;;;;;;5.28;2.35;;;;;;;17.68;52.83;97664.59;5053163;28;20045;-79
2023/10/05 08:35:45;;;;;;;9.15;2.70;;;;;;;17.75;53.43;97669.88;5053533;28;20044;-79
2023/10/05 08:38:15;;;;;;;6.57;3.50;;;;;;;17.84;52.61;97670.53;5053236;28;20102;-79
2023/10/05 08:40:45;;;;;;;6.60;2.25;;;;;;;17.88;52.09;97663.84;5053051;28;20049;-79
2023/10/05 08:43:16;;;;;;;6.55;1.90;;;;;;;17.98;52.85;97677.47;5052297;28;20057;-79
2023/10/05 08:45:47;;;;;;;3.60;1.85;;;;;;;18.18;51.21;97674.81;5052436;28;20056;-79
2023/10/05 08:48:19;;;;;;;5.32;2.17;;;;;;;18.43;50.64;97663.63;5052460;28;20424;-80
2023/10/05 08:50:52;;;;;;;5.93;2.58;;;;;;;18.67;49.00;97660.34;5051987;28;20063;-80
2023/10/05 08:53:23;;;;;;;3.40;2.00;;;;;;;18.85;48.27;97662.34;5052411;28;20494;-79
2023/10/05 08:55:52;;;;;;;5.05;2.60;;;;;;;18.96;47.92;97657.41;5052730;28;20106;-80
2023/10/05 08:58:22;;;;;;;4.78;2.03;;;;;;;19.18;48.34;97661.41;5053142;28;20106;-79
2023/10/05 09:00:51;;;;;;;4.30;1.92;;;;;;;19.54;47.55;97666.09;5053144;28;20200;-80
2023/10/05 09:03:35;;;;;;;4.47;2.13;;;;;;;19.84;47.28;97662.06;5053052;28;20493;-80
2023/10/05 09:06:15;;;;;;;5.35;2.20;;;;;;;20.01;45.80;97665.81;5053267;28;20052;-80
2023/10/05 09:08:51;;;;;;;4.90;2.00;;;;;;;20.12;45.58;97659.81;5053433;28;20045;-80
2023/10/05 09:11:22;;;;;;;6.05;2.60;;;;;;;20.30;45.35;97656.38;5052773;28;20053;-80
2023/10/05 09:13:49;;;;;;;6.30;2.53;;;;;;;20.48;44.04;97658.25;5053611;28;20151;-80
2023/10/05 09:16:30;;;;;;;8.80;2.22;;;;;;;20.54;44.05;97661.88;5071532;28;20135;-82
2023/10/05 09:19:00;;;;;;;4.53;2.28;;;;;;;20.71;44.83;97665.59;5076266;28;20029;-82
2023/10/05 09:21:50;;;;;;;5.72;2.35;;;;;;;20.93;44.15;97660.66;5059783;28;20233;-80
2023/10/05 09:24:22;;;;;;;4.45;1.95;;;;;;;21.08;43.91;97662.94;5055276;28;20080;-81
2023/10/05 09:26:54;;;;;;;3.67;1.80;;;;;;;21.31;43.04;97662.22;5055085;28;20470;-81
2023/10/05 09:29:23;;;;;;;4.47;2.13;;;;;;;21.59;42.39;97666.97;5055474;28;20104;-81
2023/10/05 09:31:54;;;;;;;4.95;1.98;;;;;;;21.76;41.74;97667.16;5055110;28;20080;-81
2023/10/05 09:34:39;;;;;;;4.30;1.77;;;;;;;21.92;41.59;97670.19;5057792;28;20061;-80
2023/10/05 09:37:10;;;;;;;6.90;2.55;;;;;;;22.09;41.11;97665.03;5055215;28;20049;-80
2023/10/05 09:39:43;;;;;;;4.53;2.50;;;;;;;22.33;40.77;97663.22;5054825;28;20084;-81
2023/10/05 09:42:14;;;;;;;;;;;;;;;22.72;40.57;97677.66;5055310;28;20091;-81
2023/10/05 09:44:50;;;;;;;3.92;2.03;;;;;;;22.97;39.47;97671.25;5054533;28;20023;-80
2023/10/05 09:47:32;;;;;;;7.30;2.78;;;;;;;23.18;38.80;97672.50;5054910;28;20045;-80
2023/10/05 09:50:02;;;;;;;6.43;3.00;;;;;;;23.28;38.38;97666.56;5054684;28;20044;-80
2023/10/05 09:52:36;;;;;;;5.57;2.13;;;;;;;23.24;38.73;97672.38;5053945;28;20534;-81
2023/10/05 09:55:06;;;;;;;7.28;3.17;;;;;;;23.11;38.17;97674.47;5054113;28;20049;-81
2023/10/05 09:57:41;;;;;;;6.25;3.63;;;;;;;22.98;39.03;97672.84;5054349;28;20056;-81
2023/10/05 10:00:13;;;;;;;5.82;3.10;;;;;;;22.89;38.80;97669.75;5054425;28;20259;-80
2023/10/05 10:02:42;;;;;;;8.75;2.85;;;;;;;22.81;39.00;97657.63;5056873;28;20056;-81
2023/10/05 10:05:30;;;;;;;6.15;2.67;;;;;;;22.78;38.59;97649.28;5058520;28;20053;-81
2023/10/05 10:08:08;;;;;;;8.70;3.40;;;;;;;22.75;38.30;97663.88;5058264;28;20049;-80
2023/10/05 10:10:51;;;;;;;8.65;4.15;;;;;;;22.76;39.43;97654.03;5057761;28;20128;-80
2023/10/05 10:13:21;;;;;;;10.57;3.60;;;;;;;22.87;39.55;97653.22;5058074;28;20413;-81
2023/10/05 10:15:53;;;;;;;8.90;3.30;;;;;;;23.06;38.78;97643.25;5057494;28;20060;-81
2023/10/05 10:18:30;;;;;;;7.45;3.35;;;;;;;23.23;39.11;97659.28;5058996;28;20041;-81
2023/10/05 10:20:59;;;;;;;8.13;4.22;;;;;;;23.36;39.11;97647.53;5059469;28;20132;-81
2023/10/05 10:23:35;;;;;;;7.88;3.25;;;;;;;23.58;38.18;97639.69;5058915;28;20112;-80
2023/10/05 10:26:06;;;;;;;7.38;3.15;;;;;;;23.90;37.71;97640.00;5058748;28;20052;-81
2023/10/05 10:28:49;;;;;;;7.55;3.30;;;;;;;24.11;36.87;97626.97;5059761;28;20073;-81
2023/10/05 10:31:42;;;;;;;5.72;3.10;;;;;;;24.31;36.74;97642.47;5058184;28;20532;-81
2023/10/05 10:34:18;;;;;;;6.78;3.55;;;;;;;24.50;36.37;97641.16;5058400;28;20600;-81
2023/10/05 10:36:53;;;;;;;6.15;2.95;;;;;;;24.56;35.85;97637.53;5058499;28;20041;-81
2023/10/05 10:39:27;;;;;;;9.10;3.47;;;;;;;24.61;35.89;97642.91;5058067;28;20048;-80
2023/10/05 10:42:04;;;;;;;7.80;3.65;;;;;;;24.60;35.87;97652.00;5057998;28;20431;-80
2023/10/05 10:44:47;;;;;;;5.97;3.10;;;;;;;24.52;35.61;97652.41;5057089;28;20057;-81
2023/10/05 10:47:15;;;;;;;5.57;3.03;;;;;;;24.32;35.92;97644.09;5057261;28;20498;-81
2023/10/05 10:49:59;;;;;;;6.07;3.20;;;;;;;24.23;35.84;97651.69;5057289;28;20060;-80
2023/10/05 10:52:26;;;;;;;6.57;3.10;;;;;;;24.09;36.18;97645.88;5056850;28;20072;-81
2023/10/05 10:55:03;;;;;;;7.78;3.42;;;;;;;23.95;35.99;97641.94;5056744;28;20041;-80
2023/10/05 10:57:31;;;;;;;6.53;3.92;;;;;;;23.92;36.40;97645.06;5058197;28;20136;-80
2023/10/05 11:00:54;;;;;;;7.80;3.22;;;;;;;23.85;36.49;97635.41;5059188;28;20053;-80
2023/10/05 11:02:54;;;;;;;7.32;4.15;;;;;;;23.65;36.76;97633.13;5058830;28;20132;-81
2023/10/05 11:05:24;;;;;;;6.78;3.10;;;;;;;23.47;37.37;97628.03;5057701;28;20090;-81
2023/10/05 11:07:59;;;;;;;10.20;3.80;;;;;;;23.33;37.30;97634.69;5056804;28;20078;-80
2023/10/05 11:10:30;;;;;;;8.77;3.35;;;;;;;23.15;38.08;97635.69;5056631;28;20501;-80
2023/10/05 11:13:14;;;;;;;8.35;3.25;;;;;;;22.98;38.50;97640.91;5056517;28;20048;-80
2023/10/05 11:15:57;;;;;;;7.40;3.28;;;;;;;22.94;38.27;97645.13;5056360;28;20052;-80
2023/10/05 11:18:26;;;;;;;9.98;3.60;;;;;;;22.96;38.27;97638.50;5055608;28;20041;-80
2023/10/05 11:20:55;;;;;;;9.20;3.50;;;;;;;22.96;38.04;97632.38;5056215;28;20049;-81
2023/10/05 11:23:25;;;;;;;6.28;3.47;;;;;;;22.94;37.92;97635.28;5056581;28;20059;-81
2023/10/05 11:26:17;;;;;;;7.75;3.47;;;;;;;22.95;38.08;97636.09;5056409;28;20073;-81
2023/10/05 11:28:43;;;;;;;5.43;2.92;;;;;;;23.07;38.08;97630.75;5055887;28;20075;-80
2023/10/05 11:31:12;;;;;;;6.70;2.97;;;;;;;23.15;38.44;97633.84;5055885;28;20053;-80
2023/10/05 11:33:46;;;;;;;9.50;3.60;;;;;;;23.17;37.88;97636.28;5055032;28;20094;-81
2023/10/05 11:36:39;;;;;;;7.15;3.33;;;;;;;23.08;37.63;97632.38;5055239;28;20045;-80
2023/10/05 11:39:08;;;;;;;10.00;3.83;;;;;;;22.95;38.02;97626.25;5055235;28;20064;-80
2023/10/05 11:41:39;;;;;;;8.77;3.25;;;;;;;22.89;37.80;97623.72;5055569;28;20049;-81
2023/10/05 11:44:11;;;;;;;7.55;3.53;;;;;;;23.01;38.04;97628.00;5055347;28;20076;-80
2023/10/05 11:46:44;;;;;;;8.90;3.90;;;;;;;23.08;36.88;97629.72;5055091;28;20140;-81
2023/10/05 11:49:13;;;;;;;8.55;3.53;;;;;;;22.84;37.56;97622.56;5055883;28;20574;-80
2023/10/05 11:51:42;;;;;;;8.63;3.58;;;;;;;22.55;37.70;97627.03;5057248;28;20470;-81
2023/10/05 11:54:10;;;;;;;8.70;3.08;;;;;;;22.48;37.56;97625.50;5054965;28;20519;-80
2023/10/05 11:56:40;;;;;;;6.68;3.58;;;;;;;22.70;37.66;97623.09;5055387;28;20148;-80
2023/10/05 11:59:10;;;;;;;8.95;3.78;;;;;;;23.06;36.88;97613.97;5054806;28;20469;-80
2023/10/05 12:01:40;;;;;;;8.10;3.55;;;;;;;23.29;35.94;97621.06;5055059;28;20053;-81
2023/10/05 12:04:08;;;;;;;8.77;3.70;;;;;;;23.28;35.74;97614.13;5055061;28;20049;-80
2023/10/05 12:06:39;;;;;;;8.52;3.83;;;;;;;23.06;36.04;97605.19;5055569;28;20107;-81
2023/10/05 12:09:07;;;;;;;7.22;3.70;;;;;;;22.82;36.87;97607.88;5055871;28;20132;-80